sensor_id;sensor_type;location;lat;lon;timestamp;P1;durP1;ratioP1;P2;durP2;ratioP2
54241;SDS011;40156;51.080;17.082;2023-07-22T00:01:03;5.80;;;3.08;;
54241;SDS011;40156;51.080;17.082;2023-07-22T00:03:35;5.78;;;3.42;;
54241;SDS011;40156;51.080;17.082;2023-07-22T00:06:06;3.33;;;2.90;;
54241;SDS011;40156;51.080;17.082;2023-07-22T00:08:34;4.80;;;3.15;;
54241;SDS011;40156;51.080;17.082;2023-07-22T00:11:01;4.30;;;2.80;;
54241;SDS011;40156;51.080;17.082;2023-07-22T00:13:29;4.13;;;3.03;;
54241;SDS011;40156;51.080;17.082;2023-07-22T00:15:57;2.72;;;2.47;;
54241;SDS011;40156;51.080;17.082;2023-07-22T00:18:25;8.35;;;4.43;;
54241;SDS011;40156;51.080;17.082;2023-07-22T00:20:53;3.65;;;3.08;;
54241;SDS011;40156;51.080;17.082;2023-07-22T00:23:21;4.75;;;3.42;;
54241;SDS011;40156;51.080;17.082;2023-07-22T00:25:49;6.80;;;3.45;;
54241;SDS011;40156;51.080;17.082;2023-07-22T00:28:16;5.07;;;3.20;;
54241;SDS011;40156;51.080;17.082;2023-07-22T00:30:44;3.83;;;2.97;;
54241;SDS011;40156;51.080;17.082;2023-07-22T00:33:11;4.78;;;2.95;;
54241;SDS011;40156;51.080;17.082;2023-07-22T00:35:54;5.28;;;2.95;;
54241;SDS011;40156;51.080;17.082;2023-07-22T00:38:21;4.97;;;3.20;;
54241;SDS011;40156;51.080;17.082;2023-07-22T00:40:49;4.47;;;3.17;;
54241;SDS011;40156;51.080;17.082;2023-07-22T00:43:16;3.83;;;3.30;;
54241;SDS011;40156;51.080;17.082;2023-07-22T00:45:44;6.60;;;3.22;;
54241;SDS011;40156;51.080;17.082;2023-07-22T00:48:11;4.63;;;2.50;;
54241;SDS011;40156;51.080;17.082;2023-07-22T00:50:40;5.25;;;3.35;;
54241;SDS011;40156;51.080;17.082;2023-07-22T00:53:08;4.35;;;3.58;;
54241;SDS011;40156;51.080;17.082;2023-07-22T00:55:35;4.53;;;3.50;;
54241;SDS011;40156;51.080;17.082;2023-07-22T00:58:04;5.28;;;3.60;;
54241;SDS011;40156;51.080;17.082;2023-07-22T01:00:31;4.82;;;3.50;;
54241;SDS011;40156;51.080;17.082;2023-07-22T01:02:59;4.65;;;3.65;;
54241;SDS011;40156;51.080;17.082;2023-07-22T01:05:27;5.32;;;3.58;;
54241;SDS011;40156;51.080;17.082;2023-07-22T01:07:55;4.65;;;3.60;;
54241;SDS011;40156;51.080;17.082;2023-07-22T01:10:23;5.35;;;3.95;;
54241;SDS011;40156;51.080;17.082;2023-07-22T01:12:50;7.28;;;4.15;;
54241;SDS011;40156;51.080;17.082;2023-07-22T01:15:18;4.38;;;3.25;;
54241;SDS011;40156;51.080;17.082;2023-07-22T01:17:45;4.50;;;3.78;;
54241;SDS011;40156;51.080;17.082;2023-07-22T01:20:13;5.32;;;4.10;;
54241;SDS011;40156;51.080;17.082;2023-07-22T01:22:41;7.78;;;4.43;;
54241;SDS011;40156;51.080;17.082;2023-07-22T01:25:10;6.68;;;4.55;;
54241;SDS011;40156;51.080;17.082;2023-07-22T01:27:37;6.85;;;4.85;;
54241;SDS011;40156;51.080;17.082;2023-07-22T01:30:05;5.75;;;4.60;;
54241;SDS011;40156;51.080;17.082;2023-07-22T01:32:33;7.32;;;5.00;;
54241;SDS011;40156;51.080;17.082;2023-07-22T01:35:00;6.38;;;5.07;;
54241;SDS011;40156;51.080;17.082;2023-07-22T01:37:28;8.57;;;5.05;;
54241;SDS011;40156;51.080;17.082;2023-07-22T01:39:55;5.60;;;4.63;;
54241;SDS011;40156;51.080;17.082;2023-07-22T01:42:23;11.18;;;4.82;;
54241;SDS011;40156;51.080;17.082;2023-07-22T01:44:50;6.20;;;4.85;;
54241;SDS011;40156;51.080;17.082;2023-07-22T01:47:18;5.78;;;4.63;;
54241;SDS011;40156;51.080;17.082;2023-07-22T01:49:45;6.75;;;4.60;;
54241;SDS011;40156;51.080;17.082;2023-07-22T01:52:13;6.40;;;4.53;;
54241;SDS011;40156;51.080;17.082;2023-07-22T01:54:40;8.43;;;4.78;;
54241;SDS011;40156;51.080;17.082;2023-07-22T01:57:08;5.35;;;4.47;;
54241;SDS011;40156;51.080;17.082;2023-07-22T01:59:35;7.78;;;5.22;;
54241;SDS011;40156;51.080;17.082;2023-07-22T02:02:03;7.43;;;4.78;;
54241;SDS011;40156;51.080;17.082;2023-07-22T02:04:30;7.07;;;4.70;;
54241;SDS011;40156;51.080;17.082;2023-07-22T02:06:58;8.23;;;4.97;;
54241;SDS011;40156;51.080;17.082;2023-07-22T02:09:26;5.78;;;5.10;;
54241;SDS011;40156;51.080;17.082;2023-07-22T02:11:53;7.60;;;4.90;;
54241;SDS011;40156;51.080;17.082;2023-07-22T02:14:21;6.90;;;5.05;;
54241;SDS011;40156;51.080;17.082;2023-07-22T02:16:48;6.70;;;5.30;;
54241;SDS011;40156;51.080;17.082;2023-07-22T02:19:16;6.10;;;5.50;;
54241;SDS011;40156;51.080;17.082;2023-07-22T02:21:43;6.78;;;5.68;;
54241;SDS011;40156;51.080;17.082;2023-07-22T02:24:12;6.47;;;5.10;;
54241;SDS011;40156;51.080;17.082;2023-07-22T02:26:41;6.53;;;5.18;;
54241;SDS011;40156;51.080;17.082;2023-07-22T02:29:09;8.55;;;5.45;;
54241;SDS011;40156;51.080;17.082;2023-07-22T02:31:36;9.65;;;6.22;;
54241;SDS011;40156;51.080;17.082;2023-07-22T02:34:04;8.35;;;6.03;;
54241;SDS011;40156;51.080;17.082;2023-07-22T02:36:31;7.82;;;6.50;;
54241;SDS011;40156;51.080;17.082;2023-07-22T02:38:59;7.45;;;6.15;;
54241;SDS011;40156;51.080;17.082;2023-07-22T02:41:27;10.32;;;6.40;;
54241;SDS011;40156;51.080;17.082;2023-07-22T02:43:54;8.88;;;6.50;;
54241;SDS011;40156;51.080;17.082;2023-07-22T02:46:22;9.48;;;6.50;;
54241;SDS011;40156;51.080;17.082;2023-07-22T02:48:49;9.93;;;6.75;;
54241;SDS011;40156;51.080;17.082;2023-07-22T02:51:17;9.60;;;6.35;;
54241;SDS011;40156;51.080;17.082;2023-07-22T02:53:44;7.90;;;6.43;;
54241;SDS011;40156;51.080;17.082;2023-07-22T02:56:12;7.18;;;5.40;;
54241;SDS011;40156;51.080;17.082;2023-07-22T02:58:40;8.52;;;5.82;;
54241;SDS011;40156;51.080;17.082;2023-07-22T03:01:07;9.07;;;6.72;;
54241;SDS011;40156;51.080;17.082;2023-07-22T03:03:36;7.63;;;5.97;;
54241;SDS011;40156;51.080;17.082;2023-07-22T03:06:03;8.63;;;5.88;;
54241;SDS011;40156;51.080;17.082;2023-07-22T03:08:31;7.10;;;5.93;;
54241;SDS011;40156;51.080;17.082;2023-07-22T03:10:58;9.75;;;6.15;;
54241;SDS011;40156;51.080;17.082;2023-07-22T03:13:26;9.90;;;6.28;;
54241;SDS011;40156;51.080;17.082;2023-07-22T03:15:53;9.13;;;6.05;;
54241;SDS011;40156;51.080;17.082;2023-07-22T03:18:21;9.38;;;5.38;;
54241;SDS011;40156;51.080;17.082;2023-07-22T03:20:49;7.90;;;5.57;;
54241;SDS011;40156;51.080;17.082;2023-07-22T03:23:16;7.15;;;5.43;;
54241;SDS011;40156;51.080;17.082;2023-07-22T03:25:44;6.07;;;5.30;;
54241;SDS011;40156;51.080;17.082;2023-07-22T03:28:11;8.75;;;5.38;;
54241;SDS011;40156;51.080;17.082;2023-07-22T03:30:39;8.80;;;5.03;;
54241;SDS011;40156;51.080;17.082;2023-07-22T03:33:07;7.97;;;5.32;;
54241;SDS011;40156;51.080;17.082;2023-07-22T03:35:34;6.07;;;4.95;;
54241;SDS011;40156;51.080;17.082;2023-07-22T03:38:04;6.03;;;4.82;;
54241;SDS011;40156;51.080;17.082;2023-07-22T03:40:31;8.43;;;5.15;;
54241;SDS011;40156;51.080;17.082;2023-07-22T03:42:59;5.63;;;4.80;;
54241;SDS011;40156;51.080;17.082;2023-07-22T03:45:26;6.30;;;4.60;;
54241;SDS011;40156;51.080;17.082;2023-07-22T03:47:58;8.52;;;4.72;;
54241;SDS011;40156;51.080;17.082;2023-07-22T03:50:26;7.20;;;5.10;;
54241;SDS011;40156;51.080;17.082;2023-07-22T03:52:53;5.60;;;4.55;;
54241;SDS011;40156;51.080;17.082;2023-07-22T03:55:21;5.50;;;4.25;;
54241;SDS011;40156;51.080;17.082;2023-07-22T03:57:48;5.68;;;4.45;;
54241;SDS011;40156;51.080;17.082;2023-07-22T04:00:16;5.70;;;4.68;;
54241;SDS011;40156;51.080;17.082;2023-07-22T04:02:44;9.43;;;4.57;;
54241;SDS011;40156;51.080;17.082;2023-07-22T04:05:11;8.63;;;4.70;;
54241;SDS011;40156;51.080;17.082;2023-07-22T04:07:47;9.10;;;4.53;;
54241;SDS011;40156;51.080;17.082;2023-07-22T04:10:14;6.35;;;4.50;;
54241;SDS011;40156;51.080;17.082;2023-07-22T04:12:42;10.95;;;5.03;;
54241;SDS011;40156;51.080;17.082;2023-07-22T04:15:09;6.20;;;4.25;;
54241;SDS011;40156;51.080;17.082;2023-07-22T04:17:37;4.95;;;3.80;;
54241;SDS011;40156;51.080;17.082;2023-07-22T04:20:04;7.78;;;3.75;;
54241;SDS011;40156;51.080;17.082;2023-07-22T04:22:32;5.60;;;3.67;;
54241;SDS011;40156;51.080;17.082;2023-07-22T04:25:00;5.22;;;3.75;;
54241;SDS011;40156;51.080;17.082;2023-07-22T04:27:28;5.00;;;3.50;;
54241;SDS011;40156;51.080;17.082;2023-07-22T04:29:55;4.85;;;3.50;;
54241;SDS011;40156;51.080;17.082;2023-07-22T04:32:22;6.05;;;3.65;;
54241;SDS011;40156;51.080;17.082;2023-07-22T04:34:50;5.22;;;3.60;;
54241;SDS011;40156;51.080;17.082;2023-07-22T04:37:17;5.45;;;3.05;;
54241;SDS011;40156;51.080;17.082;2023-07-22T04:39:48;4.60;;;3.22;;
54241;SDS011;40156;51.080;17.082;2023-07-22T04:42:16;3.67;;;3.20;;
54241;SDS011;40156;51.080;17.082;2023-07-22T04:44:44;5.78;;;3.25;;
54241;SDS011;40156;51.080;17.082;2023-07-22T04:47:11;7.28;;;3.03;;
54241;SDS011;40156;51.080;17.082;2023-07-22T04:49:39;3.60;;;3.03;;
54241;SDS011;40156;51.080;17.082;2023-07-22T04:52:06;4.82;;;2.70;;
54241;SDS011;40156;51.080;17.082;2023-07-22T04:54:34;3.45;;;2.40;;
54241;SDS011;40156;51.080;17.082;2023-07-22T04:57:02;3.58;;;3.00;;
54241;SDS011;40156;51.080;17.082;2023-07-22T04:59:29;4.53;;;2.72;;
54241;SDS011;40156;51.080;17.082;2023-07-22T05:01:57;4.22;;;2.30;;
54241;SDS011;40156;51.080;17.082;2023-07-22T05:04:24;2.78;;;2.35;;
54241;SDS011;40156;51.080;17.082;2023-07-22T05:06:52;3.40;;;2.42;;
54241;SDS011;40156;51.080;17.082;2023-07-22T05:09:19;4.57;;;2.15;;
54241;SDS011;40156;51.080;17.082;2023-07-22T05:11:47;4.25;;;2.08;;
54241;SDS011;40156;51.080;17.082;2023-07-22T05:14:14;4.95;;;2.28;;
54241;SDS011;40156;51.080;17.082;2023-07-22T05:16:41;6.65;;;2.10;;
54241;SDS011;40156;51.080;17.082;2023-07-22T05:19:09;3.63;;;2.28;;
54241;SDS011;40156;51.080;17.082;2023-07-22T05:21:36;2.47;;;2.00;;
54241;SDS011;40156;51.080;17.082;2023-07-22T05:24:04;3.75;;;1.90;;
54241;SDS011;40156;51.080;17.082;2023-07-22T05:26:32;3.55;;;1.83;;
54241;SDS011;40156;51.080;17.082;2023-07-22T05:28:59;4.18;;;2.10;;
54241;SDS011;40156;51.080;17.082;2023-07-22T05:31:27;3.00;;;2.30;;
54241;SDS011;40156;51.080;17.082;2023-07-22T05:33:54;2.92;;;1.77;;
54241;SDS011;40156;51.080;17.082;2023-07-22T05:36:22;3.15;;;2.35;;
54241;SDS011;40156;51.080;17.082;2023-07-22T05:38:49;2.20;;;1.77;;
54241;SDS011;40156;51.080;17.082;2023-07-22T05:41:17;2.92;;;1.80;;
54241;SDS011;40156;51.080;17.082;2023-07-22T05:43:44;5.03;;;1.92;;
54241;SDS011;40156;51.080;17.082;2023-07-22T05:46:12;4.45;;;1.90;;
54241;SDS011;40156;51.080;17.082;2023-07-22T05:48:39;2.80;;;1.90;;
54241;SDS011;40156;51.080;17.082;2023-07-22T05:51:07;4.40;;;1.90;;
54241;SDS011;40156;51.080;17.082;2023-07-22T05:53:34;3.15;;;1.75;;
54241;SDS011;40156;51.080;17.082;2023-07-22T05:56:02;3.65;;;1.88;;
54241;SDS011;40156;51.080;17.082;2023-07-22T05:58:29;3.95;;;2.17;;
54241;SDS011;40156;51.080;17.082;2023-07-22T06:00:57;2.67;;;1.98;;
54241;SDS011;40156;51.080;17.082;2023-07-22T06:03:24;4.40;;;1.90;;
54241;SDS011;40156;51.080;17.082;2023-07-22T06:05:52;2.40;;;1.92;;
54241;SDS011;40156;51.080;17.082;2023-07-22T06:08:20;3.00;;;2.17;;
54241;SDS011;40156;51.080;17.082;2023-07-22T06:10:47;3.10;;;2.00;;
54241;SDS011;40156;51.080;17.082;2023-07-22T06:13:15;2.67;;;2.00;;
54241;SDS011;40156;51.080;17.082;2023-07-22T06:15:42;2.47;;;2.00;;
54241;SDS011;40156;51.080;17.082;2023-07-22T06:18:10;2.50;;;1.88;;
54241;SDS011;40156;51.080;17.082;2023-07-22T06:20:37;3.90;;;1.95;;
54241;SDS011;40156;51.080;17.082;2023-07-22T06:23:05;3.88;;;1.83;;
54241;SDS011;40156;51.080;17.082;2023-07-22T06:25:33;3.22;;;1.90;;
54241;SDS011;40156;51.080;17.082;2023-07-22T06:28:00;4.40;;;2.03;;
54241;SDS011;40156;51.080;17.082;2023-07-22T06:30:28;3.92;;;2.30;;
54241;SDS011;40156;51.080;17.082;2023-07-22T06:32:55;3.63;;;2.20;;
54241;SDS011;40156;51.080;17.082;2023-07-22T06:35:23;2.50;;;1.90;;
54241;SDS011;40156;51.080;17.082;2023-07-22T06:37:50;3.03;;;1.80;;
54241;SDS011;40156;51.080;17.082;2023-07-22T06:40:18;2.53;;;2.10;;
54241;SDS011;40156;51.080;17.082;2023-07-22T06:42:45;2.70;;;2.00;;
54241;SDS011;40156;51.080;17.082;2023-07-22T06:45:13;4.38;;;1.70;;
54241;SDS011;40156;51.080;17.082;2023-07-22T06:47:41;3.38;;;2.00;;
54241;SDS011;40156;51.080;17.082;2023-07-22T06:50:08;2.20;;;2.00;;
54241;SDS011;40156;51.080;17.082;2023-07-22T06:52:36;2.05;;;1.85;;
54241;SDS011;40156;51.080;17.082;2023-07-22T06:55:04;3.42;;;1.90;;
54241;SDS011;40156;51.080;17.082;2023-07-22T06:57:32;3.10;;;2.17;;
54241;SDS011;40156;51.080;17.082;2023-07-22T06:59:59;2.60;;;2.05;;
54241;SDS011;40156;51.080;17.082;2023-07-22T07:02:27;2.30;;;2.10;;
54241;SDS011;40156;51.080;17.082;2023-07-22T07:04:55;4.70;;;2.28;;
54241;SDS011;40156;51.080;17.082;2023-07-22T07:07:22;3.42;;;1.98;;
54241;SDS011;40156;51.080;17.082;2023-07-22T07:09:50;3.97;;;2.72;;
54241;SDS011;40156;51.080;17.082;2023-07-22T07:12:17;2.83;;;1.77;;
54241;SDS011;40156;51.080;17.082;2023-07-22T07:14:45;2.92;;;1.92;;
54241;SDS011;40156;51.080;17.082;2023-07-22T07:17:12;3.35;;;2.10;;
54241;SDS011;40156;51.080;17.082;2023-07-22T07:19:40;3.47;;;2.30;;
54241;SDS011;40156;51.080;17.082;2023-07-22T07:22:07;3.67;;;2.38;;
54241;SDS011;40156;51.080;17.082;2023-07-22T07:24:35;2.88;;;2.30;;
54241;SDS011;40156;51.080;17.082;2023-07-22T07:27:02;3.15;;;2.13;;
54241;SDS011;40156;51.080;17.082;2023-07-22T07:29:30;3.20;;;2.58;;
54241;SDS011;40156;51.080;17.082;2023-07-22T07:32:00;2.30;;;2.10;;
54241;SDS011;40156;51.080;17.082;2023-07-22T07:34:28;3.92;;;2.15;;
54241;SDS011;40156;51.080;17.082;2023-07-22T07:36:55;2.42;;;2.22;;
54241;SDS011;40156;51.080;17.082;2023-07-22T07:39:23;3.53;;;2.38;;
54241;SDS011;40156;51.080;17.082;2023-07-22T07:41:50;2.10;;;1.90;;
54241;SDS011;40156;51.080;17.082;2023-07-22T07:44:18;3.58;;;2.10;;
54241;SDS011;40156;51.080;17.082;2023-07-22T07:46:45;2.13;;;1.92;;
54241;SDS011;40156;51.080;17.082;2023-07-22T07:49:14;5.70;;;1.60;;
54241;SDS011;40156;51.080;17.082;2023-07-22T07:51:41;2.78;;;1.92;;
54241;SDS011;40156;51.080;17.082;2023-07-22T07:54:09;2.97;;;1.80;;
54241;SDS011;40156;51.080;17.082;2023-07-22T07:56:36;2.63;;;1.80;;
54241;SDS011;40156;51.080;17.082;2023-07-22T07:59:04;2.42;;;1.73;;
54241;SDS011;40156;51.080;17.082;2023-07-22T08:01:32;2.45;;;1.73;;
54241;SDS011;40156;51.080;17.082;2023-07-22T08:03:59;2.22;;;1.85;;
54241;SDS011;40156;51.080;17.082;2023-07-22T08:06:27;2.47;;;2.00;;
54241;SDS011;40156;51.080;17.082;2023-07-22T08:08:55;3.15;;;1.67;;
54241;SDS011;40156;51.080;17.082;2023-07-22T08:11:22;3.72;;;1.95;;
54241;SDS011;40156;51.080;17.082;2023-07-22T08:13:50;6.97;;;1.92;;
54241;SDS011;40156;51.080;17.082;2023-07-22T08:16:17;2.58;;;1.63;;
54241;SDS011;40156;51.080;17.082;2023-07-22T08:18:45;7.35;;;2.00;;
54241;SDS011;40156;51.080;17.082;2023-07-22T08:21:12;5.30;;;1.80;;
54241;SDS011;40156;51.080;17.082;2023-07-22T08:23:42;2.38;;;2.13;;
54241;SDS011;40156;51.080;17.082;2023-07-22T08:26:09;4.18;;;1.60;;
54241;SDS011;40156;51.080;17.082;2023-07-22T08:28:37;5.53;;;1.65;;
54241;SDS011;40156;51.080;17.082;2023-07-22T08:31:04;2.45;;;1.50;;
54241;SDS011;40156;51.080;17.082;2023-07-22T08:33:32;3.40;;;1.80;;
54241;SDS011;40156;51.080;17.082;2023-07-22T08:36:02;1.60;;;1.50;;
54241;SDS011;40156;51.080;17.082;2023-07-22T08:38:30;2.42;;;1.58;;
54241;SDS011;40156;51.080;17.082;2023-07-22T08:40:57;5.20;;;1.42;;
54241;SDS011;40156;51.080;17.082;2023-07-22T08:43:25;1.42;;;1.33;;
54241;SDS011;40156;51.080;17.082;2023-07-22T08:45:54;5.38;;;1.83;;
54241;SDS011;40156;51.080;17.082;2023-07-22T08:48:23;2.10;;;1.60;;
54241;SDS011;40156;51.080;17.082;2023-07-22T08:53:30;1.40;;;1.30;;
54241;SDS011;40156;51.080;17.082;2023-07-22T08:55:58;4.50;;;1.30;;
54241;SDS011;40156;51.080;17.082;2023-07-22T08:58:25;2.15;;;1.40;;
54241;SDS011;40156;51.080;17.082;2023-07-22T09:00:57;3.28;;;1.23;;
54241;SDS011;40156;51.080;17.082;2023-07-22T09:03:25;5.07;;;1.40;;
54241;SDS011;40156;51.080;17.082;2023-07-22T09:06:02;1.50;;;1.40;;
54241;SDS011;40156;51.080;17.082;2023-07-22T09:08:32;1.10;;;0.98;;
54241;SDS011;40156;51.080;17.082;2023-07-22T09:11:00;1.33;;;1.23;;
54241;SDS011;40156;51.080;17.082;2023-07-22T09:13:28;1.50;;;1.40;;
54241;SDS011;40156;51.080;17.082;2023-07-22T09:15:59;2.80;;;1.10;;
54241;SDS011;40156;51.080;17.082;2023-07-22T09:18:27;2.38;;;1.20;;
54241;SDS011;40156;51.080;17.082;2023-07-22T09:20:54;1.27;;;1.15;;
54241;SDS011;40156;51.080;17.082;2023-07-22T09:23:34;3.63;;;1.40;;
54241;SDS011;40156;51.080;17.082;2023-07-22T09:26:12;1.90;;;1.30;;
54241;SDS011;40156;51.080;17.082;2023-07-22T09:28:50;2.28;;;1.63;;
54241;SDS011;40156;51.080;17.082;2023-07-22T09:31:18;3.17;;;1.30;;
54241;SDS011;40156;51.080;17.082;2023-07-22T09:33:46;2.22;;;1.67;;
54241;SDS011;40156;51.080;17.082;2023-07-22T09:36:13;1.58;;;1.30;;
54241;SDS011;40156;51.080;17.082;2023-07-22T09:38:41;1.80;;;1.40;;
54241;SDS011;40156;51.080;17.082;2023-07-22T09:41:08;4.10;;;1.65;;
54241;SDS011;40156;51.080;17.082;2023-07-22T09:43:37;2.50;;;1.63;;
54241;SDS011;40156;51.080;17.082;2023-07-22T09:46:05;1.40;;;1.30;;
54241;SDS011;40156;51.080;17.082;2023-07-22T09:48:52;3.25;;;2.00;;
54241;SDS011;40156;51.080;17.082;2023-07-22T09:51:19;3.20;;;1.42;;
54241;SDS011;40156;51.080;17.082;2023-07-22T09:53:47;1.60;;;1.50;;
54241;SDS011;40156;51.080;17.082;2023-07-22T09:56:25;1.90;;;1.35;;
54241;SDS011;40156;51.080;17.082;2023-07-22T09:58:54;2.67;;;1.63;;
54241;SDS011;40156;51.080;17.082;2023-07-22T10:01:23;1.73;;;1.30;;
54241;SDS011;40156;51.080;17.082;2023-07-22T10:03:55;2.58;;;1.55;;
54241;SDS011;40156;51.080;17.082;2023-07-22T10:06:28;4.03;;;1.60;;
54241;SDS011;40156;51.080;17.082;2023-07-22T10:08:58;2.97;;;1.60;;
54241;SDS011;40156;51.080;17.082;2023-07-22T10:11:26;3.05;;;1.73;;
54241;SDS011;40156;51.080;17.082;2023-07-22T10:13:55;3.75;;;1.80;;
54241;SDS011;40156;51.080;17.082;2023-07-22T10:16:23;4.85;;;1.50;;
54241;SDS011;40156;51.080;17.082;2023-07-22T10:18:51;3.33;;;2.03;;
54241;SDS011;40156;51.080;17.082;2023-07-22T10:21:20;2.58;;;1.80;;
54241;SDS011;40156;51.080;17.082;2023-07-22T10:23:49;3.03;;;2.08;;
54241;SDS011;40156;51.080;17.082;2023-07-22T10:26:18;2.10;;;1.60;;
54241;SDS011;40156;51.080;17.082;2023-07-22T10:28:52;3.55;;;1.73;;
54241;SDS011;40156;51.080;17.082;2023-07-22T10:31:20;2.90;;;1.92;;
54241;SDS011;40156;51.080;17.082;2023-07-22T10:33:48;2.47;;;1.85;;
54241;SDS011;40156;51.080;17.082;2023-07-22T10:36:16;2.67;;;2.10;;
54241;SDS011;40156;51.080;17.082;2023-07-22T10:38:44;3.28;;;1.70;;
54241;SDS011;40156;51.080;17.082;2023-07-22T10:41:22;2.33;;;1.77;;
54241;SDS011;40156;51.080;17.082;2023-07-22T10:43:56;3.83;;;1.88;;
54241;SDS011;40156;51.080;17.082;2023-07-22T10:49:10;4.43;;;1.80;;
54241;SDS011;40156;51.080;17.082;2023-07-22T10:51:38;3.00;;;1.80;;
54241;SDS011;40156;51.080;17.082;2023-07-22T10:54:12;3.05;;;1.52;;
54241;SDS011;40156;51.080;17.082;2023-07-22T10:56:43;2.33;;;1.80;;
54241;SDS011;40156;51.080;17.082;2023-07-22T10:59:11;3.15;;;1.70;;
54241;SDS011;40156;51.080;17.082;2023-07-22T11:01:39;4.68;;;1.60;;
54241;SDS011;40156;51.080;17.082;2023-07-22T11:06:35;2.83;;;1.50;;
54241;SDS011;40156;51.080;17.082;2023-07-22T11:09:02;2.13;;;1.55;;
54241;SDS011;40156;51.080;17.082;2023-07-22T11:11:48;2.90;;;1.77;;
54241;SDS011;40156;51.080;17.082;2023-07-22T11:14:16;2.50;;;1.70;;
54241;SDS011;40156;51.080;17.082;2023-07-22T11:16:46;2.53;;;1.55;;
54241;SDS011;40156;51.080;17.082;2023-07-22T11:19:14;2.22;;;1.50;;
54241;SDS011;40156;51.080;17.082;2023-07-22T11:21:43;2.72;;;1.85;;
54241;SDS011;40156;51.080;17.082;2023-07-22T11:24:10;3.33;;;1.90;;
54241;SDS011;40156;51.080;17.082;2023-07-22T11:26:38;3.38;;;2.10;;
54241;SDS011;40156;51.080;17.082;2023-07-22T11:29:07;3.03;;;1.90;;
54241;SDS011;40156;51.080;17.082;2023-07-22T11:31:38;3.95;;;1.70;;
54241;SDS011;40156;51.080;17.082;2023-07-22T11:34:07;2.08;;;1.63;;
54241;SDS011;40156;51.080;17.082;2023-07-22T11:36:34;2.45;;;1.70;;
54241;SDS011;40156;51.080;17.082;2023-07-22T11:39:09;2.10;;;1.85;;
54241;SDS011;40156;51.080;17.082;2023-07-22T11:41:36;3.47;;;1.50;;
54241;SDS011;40156;51.080;17.082;2023-07-22T11:44:04;4.03;;;1.77;;
54241;SDS011;40156;51.080;17.082;2023-07-22T11:46:32;2.55;;;1.70;;
54241;SDS011;40156;51.080;17.082;2023-07-22T11:49:00;3.50;;;1.75;;
54241;SDS011;40156;51.080;17.082;2023-07-22T11:51:30;2.35;;;1.70;;
54241;SDS011;40156;51.080;17.082;2023-07-22T11:53:57;3.60;;;1.90;;
54241;SDS011;40156;51.080;17.082;2023-07-22T11:56:25;2.83;;;2.20;;
54241;SDS011;40156;51.080;17.082;2023-07-22T11:58:54;1.90;;;1.42;;
54241;SDS011;40156;51.080;17.082;2023-07-22T12:01:23;6.75;;;2.10;;
54241;SDS011;40156;51.080;17.082;2023-07-22T12:03:55;2.72;;;1.70;;
54241;SDS011;40156;51.080;17.082;2023-07-22T12:08:51;2.08;;;1.70;;
54241;SDS011;40156;51.080;17.082;2023-07-22T12:11:19;2.47;;;1.63;;
54241;SDS011;40156;51.080;17.082;2023-07-22T12:13:47;2.22;;;1.80;;
54241;SDS011;40156;51.080;17.082;2023-07-22T12:16:14;3.08;;;1.90;;
54241;SDS011;40156;51.080;17.082;2023-07-22T12:18:42;2.60;;;1.55;;
54241;SDS011;40156;51.080;17.082;2023-07-22T12:21:10;3.15;;;1.80;;
54241;SDS011;40156;51.080;17.082;2023-07-22T12:23:37;4.07;;;1.90;;
54241;SDS011;40156;51.080;17.082;2023-07-22T12:26:05;4.57;;;2.20;;
54241;SDS011;40156;51.080;17.082;2023-07-22T12:28:33;2.72;;;2.00;;
54241;SDS011;40156;51.080;17.082;2023-07-22T12:31:00;1.83;;;1.52;;
54241;SDS011;40156;51.080;17.082;2023-07-22T12:33:28;1.90;;;1.65;;
54241;SDS011;40156;51.080;17.082;2023-07-22T12:35:56;2.58;;;1.70;;
54241;SDS011;40156;51.080;17.082;2023-07-22T12:38:23;3.08;;;1.92;;
54241;SDS011;40156;51.080;17.082;2023-07-22T12:40:51;2.55;;;1.70;;
54241;SDS011;40156;51.080;17.082;2023-07-22T12:43:18;1.90;;;1.70;;
54241;SDS011;40156;51.080;17.082;2023-07-22T12:45:46;3.50;;;1.73;;
54241;SDS011;40156;51.080;17.082;2023-07-22T12:48:14;3.40;;;1.40;;
54241;SDS011;40156;51.080;17.082;2023-07-22T12:50:43;1.63;;;1.50;;
54241;SDS011;40156;51.080;17.082;2023-07-22T12:53:10;2.40;;;1.35;;
54241;SDS011;40156;51.080;17.082;2023-07-22T12:55:38;2.70;;;1.52;;
54241;SDS011;40156;51.080;17.082;2023-07-22T12:58:06;2.22;;;1.50;;
54241;SDS011;40156;51.080;17.082;2023-07-22T13:00:33;2.60;;;1.70;;
54241;SDS011;40156;51.080;17.082;2023-07-22T13:03:01;7.40;;;1.70;;
54241;SDS011;40156;51.080;17.082;2023-07-22T13:05:29;3.67;;;1.70;;
54241;SDS011;40156;51.080;17.082;2023-07-22T13:07:57;2.78;;;1.80;;
54241;SDS011;40156;51.080;17.082;2023-07-22T13:10:30;3.47;;;1.50;;
54241;SDS011;40156;51.080;17.082;2023-07-22T13:12:58;3.47;;;1.92;;
54241;SDS011;40156;51.080;17.082;2023-07-22T13:15:25;3.80;;;1.60;;
54241;SDS011;40156;51.080;17.082;2023-07-22T13:17:53;2.15;;;1.42;;
54241;SDS011;40156;51.080;17.082;2023-07-22T13:20:21;3.03;;;1.33;;
54241;SDS011;40156;51.080;17.082;2023-07-22T13:22:48;1.60;;;1.30;;
54241;SDS011;40156;51.080;17.082;2023-07-22T13:25:16;1.75;;;1.30;;
54241;SDS011;40156;51.080;17.082;2023-07-22T13:27:43;4.60;;;1.70;;
54241;SDS011;40156;51.080;17.082;2023-07-22T13:30:11;4.00;;;1.42;;
54241;SDS011;40156;51.080;17.082;2023-07-22T13:32:39;2.65;;;1.30;;
54241;SDS011;40156;51.080;17.082;2023-07-22T13:35:07;4.10;;;1.58;;
54241;SDS011;40156;51.080;17.082;2023-07-22T13:37:35;2.03;;;1.40;;
54241;SDS011;40156;51.080;17.082;2023-07-22T13:40:03;2.33;;;1.50;;
54241;SDS011;40156;51.080;17.082;2023-07-22T13:42:31;3.05;;;1.58;;
54241;SDS011;40156;51.080;17.082;2023-07-22T13:44:58;3.45;;;1.35;;
54241;SDS011;40156;51.080;17.082;2023-07-22T13:47:26;2.38;;;1.50;;
54241;SDS011;40156;51.080;17.082;2023-07-22T13:49:53;2.72;;;1.45;;
54241;SDS011;40156;51.080;17.082;2023-07-22T13:52:21;1.90;;;1.52;;
54241;SDS011;40156;51.080;17.082;2023-07-22T13:54:48;2.78;;;1.58;;
54241;SDS011;40156;51.080;17.082;2023-07-22T13:57:16;3.75;;;1.38;;
54241;SDS011;40156;51.080;17.082;2023-07-22T13:59:43;3.60;;;1.10;;
54241;SDS011;40156;51.080;17.082;2023-07-22T14:02:11;1.63;;;1.33;;
54241;SDS011;40156;51.080;17.082;2023-07-22T14:04:39;2.17;;;1.30;;
54241;SDS011;40156;51.080;17.082;2023-07-22T14:07:06;4.45;;;1.40;;
54241;SDS011;40156;51.080;17.082;2023-07-22T14:09:34;1.80;;;1.50;;
54241;SDS011;40156;51.080;17.082;2023-07-22T14:12:01;1.77;;;1.40;;
54241;SDS011;40156;51.080;17.082;2023-07-22T14:14:29;2.08;;;1.55;;
54241;SDS011;40156;51.080;17.082;2023-07-22T14:16:57;2.55;;;1.50;;
54241;SDS011;40156;51.080;17.082;2023-07-22T14:19:24;2.42;;;1.70;;
54241;SDS011;40156;51.080;17.082;2023-07-22T14:21:53;2.53;;;1.42;;
54241;SDS011;40156;51.080;17.082;2023-07-22T14:24:20;2.25;;;1.67;;
54241;SDS011;40156;51.080;17.082;2023-07-22T14:26:48;4.90;;;1.73;;
54241;SDS011;40156;51.080;17.082;2023-07-22T14:29:18;6.00;;;1.60;;
54241;SDS011;40156;51.080;17.082;2023-07-22T14:31:46;3.03;;;1.35;;
54241;SDS011;40156;51.080;17.082;2023-07-22T14:34:15;2.80;;;1.70;;
54241;SDS011;40156;51.080;17.082;2023-07-22T14:36:43;2.03;;;1.45;;
54241;SDS011;40156;51.080;17.082;2023-07-22T14:39:12;1.95;;;1.52;;
54241;SDS011;40156;51.080;17.082;2023-07-22T14:41:40;1.50;;;1.40;;
54241;SDS011;40156;51.080;17.082;2023-07-22T14:44:08;2.13;;;1.48;;
54241;SDS011;40156;51.080;17.082;2023-07-22T14:46:35;2.08;;;1.20;;
54241;SDS011;40156;51.080;17.082;2023-07-22T14:49:03;8.00;;;1.60;;